createdAt,value
2019-03-19T00:01:51.092Z,13.90
2019-03-19T00:04:18.023Z,20.90
2019-03-19T00:06:44.790Z,18.32
2019-03-19T00:09:11.517Z,14.58
2019-03-19T00:11:37.907Z,11.78
2019-03-19T00:14:04.431Z,10.35
2019-03-19T00:16:30.855Z,7.42
2019-03-19T00:18:57.153Z,6.25
2019-03-19T00:21:23.578Z,6.33
2019-03-19T00:23:49.932Z,7.42
2019-03-19T00:26:16.651Z,32.40
2019-03-19T00:28:43.103Z,32.95
2019-03-19T00:31:09.513Z,30.45
2019-03-19T00:33:35.937Z,28.70
2019-03-19T00:36:02.415Z,28.10
2019-03-19T00:38:28.911Z,13.15
2019-03-19T00:40:55.376Z,21.17
2019-03-19T00:43:21.875Z,15.18
2019-03-19T00:45:48.200Z,12.18
2019-03-19T00:48:14.668Z,13.83
2019-03-19T00:50:41.177Z,6.42
2019-03-19T00:53:07.462Z,6.72
2019-03-19T00:55:40.613Z,7.80
2019-03-19T00:58:02.163Z,6.72
2019-03-19T01:00:28.603Z,9.25
2019-03-19T01:02:54.987Z,12.65
2019-03-19T01:05:21.614Z,12.23
2019-03-19T01:07:48.020Z,13.75
2019-03-19T01:10:17.231Z,15.00
2019-03-19T01:12:42.874Z,15.95
2019-03-19T01:15:12.681Z,27.85
2019-03-19T01:17:38.992Z,33.15
2019-03-19T01:20:10.402Z,39.85
2019-03-19T01:22:36.935Z,52.35
2019-03-19T01:25:07.079Z,46.88
2019-03-19T01:27:34.165Z,43.38
2019-03-19T01:30:00.727Z,104.65
2019-03-19T01:32:27.127Z,48.80
2019-03-19T01:34:53.796Z,37.25
2019-03-19T01:37:20.516Z,37.50
2019-03-19T01:39:46.900Z,39.58
2019-03-19T01:42:13.340Z,32.73
2019-03-19T01:44:39.985Z,32.55
2019-03-19T01:47:06.393Z,36.45
2019-03-19T01:49:32.679Z,36.28
2019-03-19T01:51:59.278Z,38.35
2019-03-19T01:54:25.691Z,39.20
2019-03-19T01:56:52.487Z,38.88
2019-03-19T01:59:18.965Z,37.15
2019-03-19T02:01:45.303Z,39.95
2019-03-19T02:04:11.737Z,34.43
2019-03-19T02:06:38.146Z,35.80
2019-03-19T02:09:05.551Z,34.43
2019-03-19T02:11:32.138Z,36.13
2019-03-19T02:13:58.840Z,32.55
2019-03-19T02:16:25.323Z,26.82
2019-03-19T02:18:51.726Z,28.35
2019-03-19T02:21:18.142Z,24.75
2019-03-19T02:23:44.707Z,26.07
2019-03-19T02:26:16.339Z,26.35
2019-03-19T02:28:40.075Z,25.65
2019-03-19T02:31:06.844Z,23.52
2019-03-19T02:33:33.362Z,27.58
2019-03-19T02:35:59.779Z,30.05
2019-03-19T02:38:26.167Z,31.97
2019-03-19T02:40:52.784Z,32.93
2019-03-19T02:43:22.712Z,28.90
2019-03-19T02:45:48.073Z,29.70
2019-03-19T02:48:14.560Z,28.02
2019-03-19T02:50:41.100Z,26.15
2019-03-19T02:53:07.726Z,20.75
2019-03-19T02:55:34.286Z,22.87
2019-03-19T02:58:00.929Z,22.48
2019-03-19T03:00:27.360Z,19.98
2019-03-19T03:02:54.046Z,17.45
2019-03-19T03:05:21.152Z,17.10
2019-03-19T03:07:47.949Z,17.35
2019-03-19T03:10:14.893Z,17.50
2019-03-19T03:12:41.681Z,14.10
2019-03-19T03:15:12.830Z,14.10
2019-03-19T03:17:39.557Z,12.58
2019-03-19T03:20:12.997Z,12.98
2019-03-19T03:22:39.617Z,12.23
2019-03-19T03:25:10.343Z,11.75
2019-03-19T03:27:36.956Z,12.58
2019-03-19T03:30:11.992Z,12.73
2019-03-19T03:32:38.931Z,13.62
2019-03-19T03:35:08.599Z,13.72
2019-03-19T03:37:35.075Z,13.20
2019-03-19T03:40:05.040Z,12.55
2019-03-19T03:42:31.459Z,13.38
2019-03-19T03:44:58.179Z,12.50
2019-03-19T03:47:24.693Z,13.35
2019-03-19T03:49:51.512Z,14.40
2019-03-19T03:52:18.000Z,15.05
2019-03-19T03:54:44.590Z,16.82
2019-03-19T03:57:11.212Z,15.72
2019-03-19T03:59:37.699Z,15.53
2019-03-19T04:02:04.521Z,13.05
2019-03-19T04:04:30.914Z,13.55
2019-03-19T04:06:57.615Z,14.47
2019-03-19T04:09:24.204Z,13.98
2019-03-19T04:11:50.979Z,13.10
2019-03-19T04:14:17.692Z,13.18
2019-03-19T04:16:44.321Z,12.37
2019-03-19T04:19:10.802Z,12.53
2019-03-19T04:21:37.127Z,12.03
2019-03-19T04:24:04.043Z,12.93
2019-03-19T04:26:30.441Z,22.02
2019-03-19T04:28:56.834Z,18.67
2019-03-19T04:31:23.351Z,14.03
2019-03-19T04:33:49.752Z,13.70
2019-03-19T04:36:16.263Z,13.08
2019-03-19T04:38:42.682Z,13.62
2019-03-19T04:41:09.579Z,13.20
2019-03-19T04:43:35.975Z,13.58
2019-03-19T04:46:02.730Z,12.93
2019-03-19T04:48:29.119Z,13.68
2019-03-19T04:50:55.434Z,14.35
2019-03-19T04:53:24.136Z,14.80
2019-03-19T04:55:50.263Z,16.35
2019-03-19T04:58:16.855Z,16.20
2019-03-19T05:00:43.347Z,18.48
2019-03-19T05:03:09.687Z,36.15
2019-03-19T05:05:36.494Z,38.58
2019-03-19T05:08:03.228Z,27.87
2019-03-19T05:10:29.623Z,33.18
2019-03-19T05:12:56.067Z,30.10
2019-03-19T05:15:22.459Z,33.92
2019-03-19T05:17:49.141Z,31.25
2019-03-19T05:20:16.844Z,51.20
2019-03-19T05:22:43.450Z,45.08
2019-03-19T05:25:10.837Z,52.08
2019-03-19T05:27:37.976Z,40.20
2019-03-19T05:30:13.226Z,29.90
2019-03-19T05:32:39.651Z,29.55
2019-03-19T05:35:08.064Z,26.73
2019-03-19T05:37:35.423Z,25.95
2019-03-19T05:40:04.819Z,27.17
2019-03-19T05:42:31.268Z,30.52
2019-03-19T05:44:57.859Z,29.25
2019-03-19T05:47:24.254Z,26.45
2019-03-19T05:49:50.675Z,28.23
2019-03-19T05:52:17.371Z,21.48
2019-03-19T05:54:44.267Z,20.48
2019-03-19T05:57:11.113Z,21.50
2019-03-19T05:59:39.906Z,18.05
2019-03-19T06:02:05.881Z,18.23
2019-03-19T06:04:32.358Z,20.60
2019-03-19T06:06:58.798Z,33.60
2019-03-19T06:09:25.320Z,39.05
2019-03-19T06:11:52.819Z,38.63
2019-03-19T06:14:19.827Z,25.70
2019-03-19T06:16:46.341Z,39.67
2019-03-19T06:19:13.000Z,44.65
2019-03-19T06:21:39.492Z,43.08
2019-03-19T06:24:06.051Z,46.75
2019-03-19T06:26:32.441Z,26.62
2019-03-19T06:28:59.346Z,35.75
2019-03-19T06:31:25.734Z,28.92
2019-03-19T06:33:52.034Z,29.05
2019-03-19T06:36:18.512Z,34.00
2019-03-19T06:38:45.827Z,36.63
2019-03-19T06:41:12.225Z,35.68
2019-03-19T06:43:38.659Z,35.98
2019-03-19T06:46:05.291Z,33.33
2019-03-19T06:48:31.935Z,30.70
2019-03-19T06:50:58.431Z,29.48
2019-03-19T06:53:27.055Z,28.75
2019-03-19T06:55:53.440Z,32.10
2019-03-19T06:58:19.920Z,31.95
2019-03-19T07:00:46.307Z,32.05
2019-03-19T07:03:14.442Z,30.25
2019-03-19T07:05:40.831Z,29.48
2019-03-19T07:08:07.300Z,31.30
2019-03-19T07:10:33.792Z,31.12
2019-03-19T07:13:00.389Z,32.20
2019-03-19T07:15:27.205Z,30.62
2019-03-19T07:17:53.611Z,29.95
2019-03-19T07:20:25.086Z,24.05
2019-03-19T07:22:52.176Z,21.35
2019-03-19T07:25:18.598Z,25.37
2019-03-19T07:27:45.205Z,20.30
2019-03-19T07:30:19.476Z,23.57
2019-03-19T07:32:46.420Z,22.13
2019-03-19T07:35:12.902Z,21.23
2019-03-19T07:37:40.196Z,19.27
2019-03-19T07:40:15.938Z,20.12
2019-03-19T07:42:42.341Z,19.00
2019-03-19T07:45:21.096Z,17.57
2019-03-19T07:47:47.595Z,17.92
2019-03-19T07:50:22.016Z,17.62
2019-03-19T07:52:48.347Z,16.93
2019-03-19T07:55:14.984Z,18.30
2019-03-19T07:57:41.734Z,18.12
2019-03-19T08:00:20.482Z,18.67
2019-03-19T08:02:47.287Z,18.70
2019-03-19T08:05:13.990Z,19.15
2019-03-19T08:07:40.871Z,17.77
2019-03-19T08:10:12.511Z,19.75
2019-03-19T08:12:39.122Z,18.23
2019-03-19T08:15:10.064Z,18.67
2019-03-19T08:17:36.372Z,18.12
2019-03-19T08:20:09.870Z,16.35
2019-03-19T08:22:36.192Z,21.02
2019-03-19T08:25:06.197Z,10.75
2019-03-19T08:27:33.121Z,12.18
2019-03-19T08:29:59.612Z,10.50
2019-03-19T08:32:25.951Z,11.33
2019-03-19T08:34:52.278Z,10.38
2019-03-19T08:37:18.681Z,11.08
2019-03-19T08:39:45.110Z,10.10
2019-03-19T08:42:11.501Z,9.75
2019-03-19T08:44:38.151Z,8.50
2019-03-19T08:47:04.639Z,9.05
2019-03-19T08:49:30.973Z,8.60
2019-03-19T08:51:57.255Z,9.33
2019-03-19T08:54:23.982Z,26.35
2019-03-19T08:56:50.271Z,10.00
2019-03-19T08:59:16.575Z,5.25
2019-03-19T09:01:43.589Z,4.15
2019-03-19T09:04:10.122Z,3.08
2019-03-19T09:06:36.558Z,3.45
2019-03-19T09:09:06.857Z,2.85
2019-03-19T09:11:33.291Z,2.42
2019-03-19T09:13:59.994Z,2.80
2019-03-19T09:16:26.340Z,3.35
2019-03-19T09:18:53.022Z,3.33
2019-03-19T09:21:19.726Z,4.35
2019-03-19T09:23:46.141Z,4.85
2019-03-19T09:26:12.567Z,4.10
2019-03-19T09:28:38.886Z,3.80
2019-03-19T09:31:05.413Z,5.78
2019-03-19T09:33:32.135Z,7.22
2019-03-19T09:35:58.475Z,4.40
2019-03-19T09:38:25.411Z,3.87
2019-03-19T09:40:51.844Z,3.50
2019-03-19T09:43:18.280Z,3.40
2019-03-19T09:45:44.875Z,3.45
2019-03-19T09:48:11.419Z,3.20
2019-03-19T09:50:37.956Z,3.10
2019-03-19T09:53:04.838Z,3.95
2019-03-19T09:55:31.773Z,4.65
2019-03-19T09:57:58.408Z,3.17
2019-03-19T10:00:25.052Z,3.08
2019-03-19T10:02:51.910Z,3.47
2019-03-19T10:05:18.937Z,3.10
2019-03-19T10:07:46.336Z,3.47
2019-03-19T10:10:22.658Z,2.92
2019-03-19T10:12:50.117Z,3.00
2019-03-19T10:15:17.511Z,2.72
2019-03-19T10:17:44.034Z,2.67
2019-03-19T10:20:18.505Z,2.27
2019-03-19T10:22:45.778Z,2.60
2019-03-19T10:25:13.768Z,2.50
2019-03-19T10:27:40.307Z,8.08
2019-03-19T10:30:14.607Z,22.82
2019-03-19T10:32:41.380Z,5.37
2019-03-19T10:35:08.092Z,10.82
2019-03-19T10:37:34.616Z,4.97
2019-03-19T10:40:01.152Z,6.72
2019-03-19T10:42:27.764Z,4.30
2019-03-19T10:44:54.211Z,5.25
2019-03-19T10:47:20.611Z,5.50
2019-03-19T10:49:47.158Z,4.62
2019-03-19T10:52:14.030Z,5.12
2019-03-19T10:54:40.566Z,5.40
2019-03-19T10:57:07.101Z,4.25
2019-03-19T10:59:33.454Z,6.05
2019-03-19T11:01:59.889Z,5.40
2019-03-19T11:04:26.619Z,4.15
2019-03-19T11:06:53.020Z,5.83
2019-03-19T11:09:19.911Z,8.98
2019-03-19T11:11:46.403Z,7.22
2019-03-19T11:14:12.808Z,6.10
2019-03-19T11:16:39.239Z,6.30
2019-03-19T11:19:05.639Z,6.10
2019-03-19T11:21:32.047Z,6.53
2019-03-19T11:23:58.558Z,7.75
2019-03-19T11:26:25.220Z,8.80
2019-03-19T11:28:51.676Z,7.50
2019-03-19T11:31:18.185Z,7.53
2019-03-19T11:33:44.926Z,8.40
2019-03-19T11:36:12.227Z,7.22
2019-03-19T11:38:38.742Z,7.30
2019-03-19T11:41:07.314Z,6.53
2019-03-19T11:43:33.919Z,6.28
2019-03-19T11:46:00.495Z,9.15
2019-03-19T11:48:26.990Z,8.43
2019-03-19T11:50:53.442Z,6.78
2019-03-19T11:53:19.899Z,7.00
2019-03-19T11:55:46.510Z,8.93
2019-03-19T11:58:13.354Z,6.72
2019-03-19T12:00:39.811Z,6.12
2019-03-19T12:03:13.802Z,6.70
2019-03-19T12:05:35.476Z,6.87
2019-03-19T12:08:02.364Z,6.42
2019-03-19T12:10:28.863Z,5.42
2019-03-19T12:12:55.424Z,7.30
2019-03-19T12:15:22.171Z,6.10
2019-03-19T12:17:49.143Z,5.80
2019-03-19T12:20:15.790Z,3.62
2019-03-19T12:22:42.192Z,3.60
2019-03-19T12:25:11.839Z,4.55
2019-03-19T12:27:38.431Z,3.45
2019-03-19T12:30:22.966Z,5.15
2019-03-19T12:32:48.724Z,4.22
2019-03-19T12:35:16.976Z,4.83
2019-03-19T12:37:43.559Z,4.78
2019-03-19T12:40:18.172Z,4.25
2019-03-19T12:42:44.698Z,4.37
2019-03-19T12:45:22.920Z,5.75
2019-03-19T12:47:49.406Z,4.42
2019-03-19T12:50:23.135Z,4.58
2019-03-19T12:52:49.709Z,6.08
2019-03-19T12:55:16.367Z,4.53
2019-03-19T12:57:42.770Z,4.12
2019-03-19T13:00:33.627Z,3.95
2019-03-19T13:02:52.315Z,3.95
2019-03-19T13:05:21.329Z,4.45
2019-03-19T13:07:47.641Z,9.65
2019-03-19T13:10:20.304Z,7.33
2019-03-19T13:12:46.994Z,4.25
2019-03-19T13:15:19.129Z,10.00
2019-03-19T13:17:45.473Z,6.55
2019-03-19T13:20:19.390Z,4.08
2019-03-19T13:22:46.323Z,4.45
2019-03-19T13:25:21.983Z,5.90
2019-03-19T13:27:48.299Z,5.40
2019-03-19T13:30:30.359Z,5.62
2019-03-19T13:32:56.744Z,6.75
2019-03-19T13:35:23.044Z,5.80
2019-03-19T13:37:49.626Z,7.92
2019-03-19T13:40:17.323Z,7.15
2019-03-19T13:42:44.368Z,8.73
2019-03-19T13:45:20.016Z,5.70
2019-03-19T13:47:46.960Z,5.20
2019-03-19T13:50:15.933Z,8.63
2019-03-19T13:52:42.298Z,11.55
2019-03-19T13:55:13.188Z,31.07
2019-03-19T13:57:39.654Z,59.88
2019-03-19T14:00:13.389Z,113.37
2019-03-19T14:02:40.061Z,77.80
2019-03-19T14:05:09.431Z,42.83
2019-03-19T14:07:35.924Z,35.38
2019-03-19T14:10:07.075Z,8.98
2019-03-19T14:12:33.482Z,5.08
2019-03-19T14:14:59.787Z,6.42
2019-03-19T14:17:26.330Z,17.42
2019-03-19T14:19:52.617Z,24.35
2019-03-19T14:22:19.111Z,13.62
2019-03-19T14:24:45.665Z,13.85
2019-03-19T14:27:12.271Z,6.83
2019-03-19T14:29:38.750Z,16.12
2019-03-19T14:32:05.022Z,10.70
2019-03-19T14:34:31.330Z,8.35
2019-03-19T14:36:57.767Z,10.18
2019-03-19T14:39:24.222Z,6.87
2019-03-19T14:41:50.918Z,5.15
2019-03-19T14:44:17.550Z,4.45
2019-03-19T14:46:43.989Z,4.40
2019-03-19T14:49:10.928Z,7.30
2019-03-19T14:51:37.501Z,9.10
2019-03-19T14:54:04.063Z,9.98
2019-03-19T14:56:30.469Z,12.05
2019-03-19T14:58:59.327Z,14.25
2019-03-19T15:01:25.931Z,18.05
2019-03-19T15:03:52.448Z,16.85
2019-03-19T15:06:18.842Z,17.05
2019-03-19T15:08:45.460Z,14.78
2019-03-19T15:11:12.103Z,14.43
2019-03-19T15:13:38.638Z,31.30
2019-03-19T15:16:05.374Z,22.45
2019-03-19T15:18:31.873Z,18.05
2019-03-19T15:20:58.445Z,9.75
2019-03-19T15:23:24.880Z,16.80
2019-03-19T15:25:51.624Z,13.98
2019-03-19T15:28:18.109Z,7.47
2019-03-19T15:30:44.896Z,17.27
2019-03-19T15:33:11.402Z,33.05
2019-03-19T15:35:38.953Z,26.07
2019-03-19T15:38:05.707Z,30.82
2019-03-19T15:40:32.120Z,44.40
2019-03-19T15:43:00.829Z,49.85
2019-03-19T15:45:29.532Z,30.25
2019-03-19T15:47:55.969Z,34.55
2019-03-19T15:50:22.638Z,35.00
2019-03-19T15:52:49.001Z,37.00
2019-03-19T15:55:15.513Z,31.37
2019-03-19T15:57:42.330Z,26.82
2019-03-19T16:00:18.884Z,23.62
2019-03-19T16:02:45.570Z,15.72
2019-03-19T16:05:13.002Z,15.08
2019-03-19T16:07:39.496Z,21.55
2019-03-19T16:10:13.307Z,23.92
2019-03-19T16:12:40.462Z,21.60
2019-03-19T16:15:13.737Z,37.40
2019-03-19T16:17:40.131Z,40.12
2019-03-19T16:20:11.001Z,34.13
2019-03-19T16:22:38.741Z,48.55
2019-03-19T16:25:07.085Z,66.87
2019-03-19T16:27:33.571Z,53.55
2019-03-19T16:29:59.984Z,44.65
2019-03-19T16:32:26.411Z,48.38
2019-03-19T16:34:52.927Z,65.97
2019-03-19T16:37:19.990Z,74.27
2019-03-19T16:39:46.898Z,81.42
2019-03-19T16:42:13.406Z,83.00
2019-03-19T16:44:39.942Z,73.83
2019-03-19T16:47:06.437Z,78.22
2019-03-19T16:49:32.798Z,76.33
2019-03-19T16:51:59.251Z,75.30
2019-03-19T16:54:25.649Z,84.80
2019-03-19T16:56:52.645Z,94.30
2019-03-19T16:59:19.147Z,74.95
2019-03-19T17:01:45.585Z,93.97
2019-03-19T17:04:12.116Z,66.92
2019-03-19T17:06:38.726Z,64.32
2019-03-19T17:09:05.820Z,78.25
2019-03-19T17:11:32.471Z,96.57
2019-03-19T17:13:58.802Z,110.35
2019-03-19T17:16:25.213Z,97.02
2019-03-19T17:18:51.882Z,92.62
2019-03-19T17:21:18.377Z,95.57
2019-03-19T17:23:44.804Z,112.20
2019-03-19T17:26:11.096Z,122.20
2019-03-19T17:28:37.447Z,124.38
2019-03-19T17:31:04.024Z,111.25
2019-03-19T17:33:30.335Z,102.55
2019-03-19T17:35:56.963Z,131.65
2019-03-19T17:38:23.372Z,171.50
2019-03-19T17:40:50.179Z,287.12
2019-03-19T17:43:16.600Z,277.02
2019-03-19T17:45:43.147Z,278.58
2019-03-19T17:48:16.003Z,232.75
2019-03-19T17:50:42.075Z,163.28
2019-03-19T17:53:08.691Z,225.55
2019-03-19T17:55:35.192Z,197.05
2019-03-19T17:58:01.608Z,203.88
2019-03-19T18:00:32.862Z,240.85
2019-03-19T18:02:59.298Z,168.17
2019-03-19T18:05:25.799Z,105.90
2019-03-19T18:07:52.211Z,59.85
2019-03-19T18:10:18.973Z,84.67
2019-03-19T18:12:45.375Z,81.40
2019-03-19T18:15:14.122Z,101.65
2019-03-19T18:17:40.976Z,84.72
2019-03-19T18:20:17.215Z,78.37
2019-03-19T18:25:14.522Z,78.33
2019-03-19T18:27:41.027Z,105.03
2019-03-19T18:30:16.699Z,115.00
2019-03-19T18:32:43.401Z,99.85
2019-03-19T18:35:10.123Z,52.30
2019-03-19T18:37:36.624Z,55.12
2019-03-19T18:40:08.815Z,47.13
2019-03-19T18:42:35.234Z,42.62
2019-03-19T18:45:02.186Z,46.48
2019-03-19T18:47:28.985Z,58.40
2019-03-19T18:49:55.628Z,82.30
2019-03-19T18:52:21.993Z,55.08
2019-03-19T18:54:48.630Z,49.15
2019-03-19T18:57:15.079Z,51.53
2019-03-19T18:59:41.818Z,61.75
2019-03-19T19:02:08.321Z,67.95
2019-03-19T19:04:34.980Z,70.70
2019-03-19T19:07:01.579Z,65.28
2019-03-19T19:09:28.255Z,65.10
2019-03-19T19:11:54.767Z,94.92
2019-03-19T19:14:21.623Z,93.37
2019-03-19T19:16:48.045Z,122.60
2019-03-19T19:19:14.663Z,127.40
2019-03-19T19:21:41.252Z,138.52
2019-03-19T19:24:07.672Z,157.62
2019-03-19T19:26:34.008Z,140.97
2019-03-19T19:29:00.444Z,120.50
2019-03-19T19:31:26.947Z,111.22
2019-03-19T19:33:53.444Z,134.50
2019-03-19T19:36:19.962Z,124.45
2019-03-19T19:38:46.402Z,107.63
2019-03-19T19:41:12.939Z,83.87
2019-03-19T19:43:39.340Z,69.40
2019-03-19T19:46:05.702Z,57.50
2019-03-19T19:48:32.227Z,57.58
2019-03-19T19:50:58.935Z,56.08
2019-03-19T19:53:25.345Z,76.28
2019-03-19T19:55:51.878Z,102.60
2019-03-19T19:58:18.652Z,85.20
2019-03-19T20:00:45.152Z,72.72
2019-03-19T20:03:12.669Z,69.82
2019-03-19T20:05:39.275Z,80.47
2019-03-19T20:08:05.783Z,83.95
2019-03-19T20:10:32.367Z,81.05
2019-03-19T20:12:58.947Z,81.67
2019-03-19T20:15:25.734Z,81.08
2019-03-19T20:17:52.135Z,78.72
2019-03-19T20:20:28.771Z,75.45
2019-03-19T20:22:55.185Z,63.90
2019-03-19T20:25:21.704Z,69.53
2019-03-19T20:27:48.007Z,63.40
2019-03-19T20:30:19.604Z,68.65
2019-03-19T20:32:45.993Z,65.28
2019-03-19T20:35:12.592Z,71.30
2019-03-19T20:37:39.264Z,64.10
2019-03-19T20:40:12.211Z,63.80
2019-03-19T20:42:38.519Z,60.55
2019-03-19T20:45:09.658Z,67.35
2019-03-19T20:47:36.150Z,65.97
2019-03-19T20:50:07.406Z,77.27
2019-03-19T20:52:33.787Z,62.70
2019-03-19T20:55:00.506Z,77.87
2019-03-19T20:57:26.891Z,100.47
2019-03-19T20:59:53.464Z,76.17
2019-03-19T21:02:19.952Z,79.40
2019-03-19T21:04:46.440Z,77.42
2019-03-19T21:07:13.033Z,81.45
2019-03-19T21:09:39.561Z,93.90
2019-03-19T21:12:06.158Z,75.47
2019-03-19T21:14:32.851Z,69.92
2019-03-19T21:16:59.469Z,75.80
2019-03-19T21:19:25.795Z,81.87
2019-03-19T21:21:52.193Z,92.20
2019-03-19T21:24:18.827Z,90.92
2019-03-19T21:26:45.260Z,95.07
2019-03-19T21:29:11.738Z,86.45
2019-03-19T21:31:38.034Z,91.92
2019-03-19T21:34:04.761Z,93.60
2019-03-19T21:36:31.148Z,95.57
2019-03-19T21:38:57.628Z,100.07
2019-03-19T21:41:24.115Z,100.87
2019-03-19T21:43:50.512Z,103.65
2019-03-19T21:46:17.236Z,105.60
2019-03-19T21:48:43.642Z,103.60
2019-03-19T21:51:10.411Z,103.02
2019-03-19T21:53:36.854Z,95.67
2019-03-19T21:56:03.792Z,117.33
2019-03-19T21:58:30.289Z,119.22
2019-03-19T22:00:56.894Z,105.58
2019-03-19T22:03:23.735Z,94.75
2019-03-19T22:05:50.031Z,92.45
2019-03-19T22:08:16.711Z,100.38
2019-03-19T22:10:43.112Z,99.20
2019-03-19T22:13:09.643Z,105.85
2019-03-19T22:15:36.155Z,100.78
2019-03-19T22:18:02.887Z,110.20
2019-03-19T22:20:29.519Z,116.60
2019-03-19T22:22:55.910Z,113.50
2019-03-19T22:25:22.826Z,113.25
2019-03-19T22:27:49.287Z,120.35
2019-03-19T22:30:20.912Z,108.17
2019-03-19T22:32:47.540Z,102.10
2019-03-19T22:35:14.456Z,101.30
2019-03-19T22:37:40.927Z,93.67
2019-03-19T22:40:13.298Z,96.65
2019-03-19T22:42:39.719Z,99.17
2019-03-19T22:45:13.654Z,95.22
2019-03-19T22:47:40.162Z,95.53
2019-03-19T22:50:17.970Z,98.78
2019-03-19T22:52:44.999Z,90.40
2019-03-19T22:55:12.988Z,97.25
2019-03-19T22:57:39.499Z,93.33
2019-03-19T23:00:37.299Z,92.25
2019-03-19T23:03:05.010Z,95.47
2019-03-19T23:05:31.699Z,92.12
2019-03-19T23:07:58.505Z,90.03
2019-03-19T23:10:25.277Z,92.08
2019-03-19T23:12:51.614Z,86.95
2019-03-19T23:15:18.013Z,86.57
2019-03-19T23:17:44.456Z,86.50
2019-03-19T23:20:13.058Z,87.42
2019-03-19T23:22:39.956Z,88.42
2019-03-19T23:25:07.721Z,84.77
2019-03-19T23:27:34.107Z,86.55
2019-03-19T23:30:00.498Z,92.95
2019-03-19T23:32:26.928Z,83.47
2019-03-19T23:34:53.256Z,81.22
2019-03-19T23:37:19.932Z,82.90
2019-03-19T23:39:46.654Z,87.12
2019-03-19T23:42:13.569Z,89.58
2019-03-19T23:44:40.087Z,84.17
2019-03-19T23:47:06.374Z,84.28
2019-03-19T23:49:32.903Z,86.90
2019-03-19T23:51:59.451Z,82.35
2019-03-19T23:54:26.044Z,84.17
2019-03-19T23:56:52.832Z,90.67
2019-03-19T23:59:19.218Z,85.70
